Time;durP1;ratioP1;P1;durP2;ratioP2;P2;SDS_P1;SDS_P2;PMS_P1;PMS_P2;Temp;Humidity;BMP_temperature;BMP_pressure;BME280_temperature;BME280_humidity;BME280_pressure;Samples;Min_cycle;Max_cycle;Signal;HPM_P1;HPM_P2
2023/06/04 00:01:16;;;;;;;;;;;24.70;42.80;;;;;;1564143;74;769;-68
2023/06/04 00:03:18;;;;;;;;;;;24.70;42.70;;;;;;1558397;74;1550;-69
2023/06/04 00:05:21;;;;;;;;;;;24.80;42.70;;;;;;1565067;74;1943;-67
2023/06/04 00:07:23;;;;;;;;;;;24.80;42.70;;;;;;1562945;74;1151;-67
2023/06/04 00:09:25;;;;;;;;;;;24.80;42.70;;;;;;1562564;74;716;-67
2023/06/04 00:11:26;;;;;;;;;;;24.80;42.80;;;;;;1553293;74;1026;-67
2023/06/04 00:13:28;;;;;;;;;;;24.80;42.70;;;;;;1556778;75;863;-68
2023/06/04 00:15:30;;;;;;;;;;;24.80;42.60;;;;;;1557232;76;653;-68
2023/06/04 00:17:32;;;;;;;;;;;24.80;42.60;;;;;;1553358;75;1532;-68
2023/06/04 00:19:34;;;;;;;;;;;24.80;42.50;;;;;;1559103;75;779;-68
2023/06/04 00:21:36;;;;;;;;;;;24.80;42.60;;;;;;1551636;75;759;-67
2023/06/04 00:23:38;;;;;;;;;;;24.80;42.60;;;;;;1553365;75;754;-68
2023/06/04 00:25:40;;;;;;;;;;;24.80;42.60;;;;;;1558957;75;1932;-67
2023/06/04 00:27:42;;;;;;;;;;;24.80;42.50;;;;;;1552852;75;1130;-68
2023/06/04 00:29:44;;;;;;;;;;;24.80;42.60;;;;;;1560788;74;773;-68
2023/06/04 00:31:46;;;;;;;;;;;24.80;42.50;;;;;;1561490;75;1392;-68
2023/06/04 00:33:48;;;;;;;;;;;24.80;42.50;;;;;;1556374;75;810;-68
2023/06/04 00:35:50;;;;;;;;;;;24.80;42.50;;;;;;1559089;75;735;-68
2023/06/04 00:37:52;;;;;;;;;;;24.80;42.40;;;;;;1553631;75;1134;-69
2023/06/04 00:39:54;;;;;;;;;;;24.80;42.40;;;;;;1554043;75;765;-68
2023/06/04 00:41:55;;;;;;;;;;;24.80;42.40;;;;;;1554707;75;792;-69
2023/06/04 00:43:57;;;;;;;;;;;24.80;42.40;;;;;;1551455;75;740;-67
2023/06/04 00:46:00;;;;;;;;;;;24.80;42.40;;;;;;1556831;75;1923;-68
2023/06/04 00:48:02;;;;;;;;;;;24.80;42.30;;;;;;1561589;75;1160;-68
2023/06/04 00:50:04;;;;;;;;;;;24.80;42.40;;;;;;1558921;75;681;-67
2023/06/04 00:52:06;;;;;;;;;;;24.80;42.30;;;;;;1548606;75;764;-67
2023/06/04 00:54:11;;;;;;;;;;;24.80;42.30;;;;;;1557451;75;764;-68
2023/06/04 00:56:13;;;;;;;;;;;24.80;42.30;;;;;;1563371;75;714;-67
2023/06/04 00:58:15;;;;;;;;;;;24.80;42.30;;;;;;1559944;75;1112;-67
2023/06/04 01:00:17;;;;;;;;;;;24.80;42.30;;;;;;1545986;75;1614;-67
2023/06/04 01:02:22;;;;;;;;;;;24.80;42.40;;;;;;1560966;75;757;-67
2023/06/04 01:04:28;;;;;;;;;;;24.80;42.30;;;;;;1554798;75;706;-69
2023/06/04 01:06:38;;;;;;;;;;;24.80;42.30;;;;;;1555273;75;1934;-68
2023/06/04 01:08:43;;;;;;;;;;;24.80;42.30;;;;;;1558260;75;1215;-69
2023/06/04 01:10:53;;;;;;;;;;;24.80;42.30;;;;;;1551263;75;1547;-68
2023/06/04 01:12:55;;;;;;;;;;;24.80;42.30;;;;;;1561964;74;1111;-68
2023/06/04 01:14:57;;;;;;;;;;;24.80;42.30;;;;;;1566572;74;1567;-69
2023/06/04 01:17:02;;;;;;;;;;;24.80;42.30;;;;;;1564830;74;1194;-68
2023/06/04 01:19:08;;;;;;;;;;;24.80;42.30;;;;;;1566527;74;718;-68
2023/06/04 01:21:09;;;;;;;;;;;24.80;42.20;;;;;;1551834;74;948;-68
2023/06/04 01:23:15;;;;;;;;;;;24.80;42.20;;;;;;1551083;74;844;-68
2023/06/04 01:25:28;;;;;;;;;;;24.80;42.10;;;;;;1571910;74;729;-68
2023/06/04 01:27:30;;;;;;;;;;;24.80;42.20;;;;;;1555936;74;1911;-68
2023/06/04 01:29:32;;;;;;;;;;;24.70;42.20;;;;;;1561214;74;696;-67
2023/06/04 01:31:33;;;;;;;;;;;24.80;42.20;;;;;;1564485;74;787;-67
2023/06/04 01:33:35;;;;;;;;;;;24.80;42.30;;;;;;1559739;74;705;-67
2023/06/04 01:35:37;;;;;;;;;;;24.80;42.30;;;;;;1549965;74;716;-67
2023/06/04 01:37:39;;;;;;;;;;;24.80;42.20;;;;;;1553255;74;1121;-69
2023/06/04 01:39:41;;;;;;;;;;;24.80;42.30;;;;;;1563136;74;689;-69
2023/06/04 01:41:43;;;;;;;;;;;24.80;42.20;;;;;;1565820;74;1555;-68
2023/06/04 01:43:45;;;;;;;;;;;24.70;42.20;;;;;;1563923;74;679;-68
2023/06/04 01:45:48;;;;;;;;;;;24.80;42.20;;;;;;1557906;74;1926;-68
2023/06/04 01:47:50;;;;;;;;;;;24.70;42.20;;;;;;1571039;74;1110;-68
2023/06/04 01:49:51;;;;;;;;;;;24.70;42.10;;;;;;1557814;74;690;-69
2023/06/04 01:51:53;;;;;;;;;;;24.70;42.20;;;;;;1565661;74;751;-68
2023/06/04 01:53:55;;;;;;;;;;;24.80;42.20;;;;;;1556635;74;776;-68
2023/06/04 01:55:57;;;;;;;;;;;24.70;42.10;;;;;;1564057;74;1582;-69
2023/06/04 01:58:00;;;;;;;;;;;24.70;42.20;;;;;;1571065;74;1092;-68
2023/06/04 02:00:02;;;;;;;;;;;24.70;42.20;;;;;;1564790;74;746;-68
2023/06/04 02:02:04;;;;;;;;;;;24.70;42.20;;;;;;1566433;74;745;-68
2023/06/04 02:04:06;;;;;;;;;;;24.80;42.20;;;;;;1565606;74;783;-68
2023/06/04 02:06:08;;;;;;;;;;;24.80;42.20;;;;;;1564271;74;1924;-69
2023/06/04 02:08:11;;;;;;;;;;;24.70;42.20;;;;;;1566995;74;1160;-68
2023/06/04 02:10:13;;;;;;;;;;;24.70;42.20;;;;;;1573244;74;1561;-65
2023/06/04 02:12:15;;;;;;;;;;;24.80;42.20;;;;;;1563316;74;747;-65
2023/06/04 02:14:17;;;;;;;;;;;24.70;42.20;;;;;;1550300;75;967;-65
2023/06/04 02:16:19;;;;;;;;;;;24.70;42.20;;;;;;1549052;75;767;-65
2023/06/04 02:18:22;;;;;;;;;;;24.70;42.20;;;;;;1551268;75;1137;-65
2023/06/04 02:20:23;;;;;;;;;;;24.70;42.10;;;;;;1546856;75;811;-65
2023/06/04 02:22:25;;;;;;;;;;;24.70;42.10;;;;;;1549610;74;764;-65
2023/06/04 02:24:27;;;;;;;;;;;24.70;42.10;;;;;;1558480;75;1522;-66
2023/06/04 02:26:29;;;;;;;;;;;24.70;42.20;;;;;;1547759;75;1939;-66
2023/06/04 02:28:31;;;;;;;;;;;24.70;42.20;;;;;;1553258;75;1146;-66
2023/06/04 02:30:33;;;;;;;;;;;24.70;42.20;;;;;;1554327;75;687;-66
2023/06/04 02:32:35;;;;;;;;;;;24.70;42.20;;;;;;1556137;75;951;-67
2023/06/04 02:34:37;;;;;;;;;;;24.70;42.20;;;;;;1559839;75;794;-66
2023/06/04 02:36:39;;;;;;;;;;;24.70;42.30;;;;;;1555187;75;708;-67
2023/06/04 02:38:41;;;;;;;;;;;24.70;42.20;;;;;;1565080;75;1248;-66
2023/06/04 02:40:43;;;;;;;;;;;24.70;42.20;;;;;;1559076;75;781;-66
2023/06/04 02:42:45;;;;;;;;;;;24.70;42.20;;;;;;1563424;75;780;-66
2023/06/04 02:44:47;;;;;;;;;;;24.70;42.30;;;;;;1555885;74;930;-66
2023/06/04 02:46:49;;;;;;;;;;;24.70;42.20;;;;;;1553287;75;1933;-67
2023/06/04 02:48:51;;;;;;;;;;;24.70;42.20;;;;;;1556899;75;1141;-67
2023/06/04 02:50:53;;;;;;;;;;;24.70;42.20;;;;;;1560998;75;772;-66
2023/06/04 02:52:55;;;;;;;;;;;24.70;42.20;;;;;;1551138;75;1597;-66
2023/06/04 02:54:57;;;;;;;;;;;24.70;42.20;;;;;;1558001;75;745;-66
2023/06/04 02:56:59;;;;;;;;;;;24.70;42.10;;;;;;1558803;75;1153;-66
2023/06/04 02:59:01;;;;;;;;;;;24.70;42.10;;;;;;1555003;75;741;-66
2023/06/04 03:01:03;;;;;;;;;;;24.70;42.10;;;;;;1558295;75;731;-67
2023/06/04 03:03:05;;;;;;;;;;;24.70;42.10;;;;;;1552289;75;771;-66
2023/06/04 03:05:08;;;;;;;;;;;24.70;42.10;;;;;;1561477;75;753;-67
2023/06/04 03:07:11;;;;;;;;;;;24.60;42.10;;;;;;1555980;75;1926;-67
2023/06/04 03:09:13;;;;;;;;;;;24.70;42.30;;;;;;1555158;75;635;-69
2023/06/04 03:11:15;;;;;;;;;;;24.70;42.30;;;;;;1548687;75;759;-67
2023/06/04 03:13:17;;;;;;;;;;;24.70;42.30;;;;;;1566106;74;1077;-69
2023/06/04 03:15:18;;;;;;;;;;;24.60;42.20;;;;;;1565474;74;716;-67
2023/06/04 03:17:20;;;;;;;;;;;24.70;42.30;;;;;;1554809;74;1204;-68
2023/06/04 03:19:22;;;;;;;;;;;24.60;42.10;;;;;;1565964;74;730;-68
2023/06/04 03:21:24;;;;;;;;;;;24.70;42.20;;;;;;1570873;74;1627;-68
2023/06/04 03:23:26;;;;;;;;;;;24.70;42.20;;;;;;1562544;74;915;-68
2023/06/04 03:25:28;;;;;;;;;;;24.70;42.20;;;;;;1565385;74;875;-68
2023/06/04 03:27:31;;;;;;;;;;;24.60;42.00;;;;;;1567165;74;1944;-68
2023/06/04 03:29:33;;;;;;;;;;;24.70;42.10;;;;;;1563894;74;700;-68
2023/06/04 03:31:35;;;;;;;;;;;24.70;42.10;;;;;;1566576;74;749;-68
2023/06/04 03:33:37;;;;;;;;;;;24.70;42.10;;;;;;1564879;74;1537;-69
2023/06/04 03:35:40;;;;;;;;;;;24.70;42.10;;;;;;1566324;74;726;-69
2023/06/04 03:37:42;;;;;;;;;;;24.80;42.00;;;;;;1560679;74;1085;-68
2023/06/04 03:39:44;;;;;;;;;;;24.70;42.00;;;;;;1564244;74;762;-69
2023/06/04 03:41:46;;;;;;;;;;;24.70;42.00;;;;;;1563647;74;709;-68
2023/06/04 03:43:48;;;;;;;;;;;24.70;42.00;;;;;;1567726;74;766;-69
2023/06/04 03:45:50;;;;;;;;;;;24.70;42.00;;;;;;1561422;74;713;-69
2023/06/04 03:47:52;;;;;;;;;;;24.70;42.00;;;;;;1562212;74;1942;-69
2023/06/04 03:49:54;;;;;;;;;;;24.70;41.90;;;;;;1567458;74;676;-69
2023/06/04 03:51:56;;;;;;;;;;;24.70;42.00;;;;;;1564301;74;805;-69
2023/06/04 03:53:58;;;;;;;;;;;24.70;41.90;;;;;;1554844;74;655;-69
2023/06/04 03:56:00;;;;;;;;;;;24.70;41.90;;;;;;1562466;74;751;-68
2023/06/04 03:58:02;;;;;;;;;;;24.70;41.90;;;;;;1555697;74;1128;-68
2023/06/04 04:00:05;;;;;;;;;;;24.70;42.00;;;;;;1559704;74;766;-68
2023/06/04 04:02:07;;;;;;;;;;;24.70;42.00;;;;;;1558797;74;1501;-68
2023/06/04 04:04:09;;;;;;;;;;;24.70;41.90;;;;;;1566341;74;763;-67
2023/06/04 04:06:11;;;;;;;;;;;24.70;41.90;;;;;;1567266;74;704;-67
2023/06/04 04:08:16;;;;;;;;;;;24.70;41.80;;;;;;1565957;74;1932;-68
2023/06/04 04:10:16;;;;;;;;;;;24.70;42.00;;;;;;1562629;74;1661;-67
2023/06/04 04:12:18;;;;;;;;;;;24.60;41.80;;;;;;1550463;74;739;-67
2023/06/04 04:14:20;;;;;;;;;;;24.70;42.00;;;;;;1564145;74;1049;-68
2023/06/04 04:16:22;;;;;;;;;;;24.60;41.90;;;;;;1567999;74;1523;-67
2023/06/04 04:18:24;;;;;;;;;;;24.70;42.00;;;;;;1568641;74;1169;-67
2023/06/04 04:20:26;;;;;;;;;;;24.60;41.90;;;;;;1566981;74;678;-68
2023/06/04 04:22:28;;;;;;;;;;;24.70;42.00;;;;;;1570839;74;747;-68
2023/06/04 04:24:31;;;;;;;;;;;24.70;42.00;;;;;;1566954;74;729;-67
2023/06/04 04:26:34;;;;;;;;;;;24.70;42.00;;;;;;1563358;74;782;-68
2023/06/04 04:28:36;;;;;;;;;;;24.70;42.00;;;;;;1568840;74;2058;-69
2023/06/04 04:30:39;;;;;;;;;;;24.70;42.10;;;;;;1570199;74;1525;-68
2023/06/04 04:32:48;;;;;;;;;;;24.70;42.00;;;;;;1563933;74;755;-68
2023/06/04 04:34:54;;;;;;;;;;;24.70;42.00;;;;;;1572149;74;1649;-68
2023/06/04 04:36:56;;;;;;;;;;;24.60;41.90;;;;;;1566142;74;1161;-68
2023/06/04 04:38:59;;;;;;;;;;;24.70;42.00;;;;;;1567450;74;738;-68
2023/06/04 04:41:01;;;;;;;;;;;24.70;42.00;;;;;;1567357;74;771;-68
2023/06/04 04:43:03;;;;;;;;;;;24.70;41.90;;;;;;1572722;74;950;-68
2023/06/04 04:45:06;;;;;;;;;;;24.70;42.00;;;;;;1560025;74;1543;-68
2023/06/04 04:47:08;;;;;;;;;;;24.70;42.00;;;;;;1564936;74;1931;-68
2023/06/04 04:49:10;;;;;;;;;;;24.70;42.00;;;;;;1572952;74;742;-68
2023/06/04 04:51:12;;;;;;;;;;;24.70;41.90;;;;;;1567927;74;963;-68
2023/06/04 04:53:13;;;;;;;;;;;24.70;42.00;;;;;;1563839;74;775;-68
2023/06/04 04:55:15;;;;;;;;;;;24.70;42.00;;;;;;1557912;74;701;-67
2023/06/04 04:57:17;;;;;;;;;;;24.70;42.10;;;;;;1570048;74;1156;-67
2023/06/04 04:59:19;;;;;;;;;;;24.60;42.00;;;;;;1566851;74;1632;-67
2023/06/04 05:01:21;;;;;;;;;;;24.70;42.10;;;;;;1570593;74;718;-67
2023/06/04 05:03:23;;;;;;;;;;;24.80;42.10;;;;;;1568347;74;693;-67
2023/06/04 05:05:25;;;;;;;;;;;24.70;42.10;;;;;;1557391;74;755;-66
2023/06/04 05:07:27;;;;;;;;;;;24.70;42.10;;;;;;1564129;74;1929;-67
2023/06/04 05:09:29;;;;;;;;;;;24.70;42.20;;;;;;1555516;74;782;-67
2023/06/04 05:11:31;;;;;;;;;;;24.80;42.20;;;;;;1562036;74;701;-67
2023/06/04 05:13:32;;;;;;;;;;;24.70;42.70;;;;;;1566650;74;1279;-67
2023/06/04 05:15:34;;;;;;;;;;;24.70;42.70;;;;;;1553050;74;1020;-67
2023/06/04 05:17:40;;;;;;;;;;;24.60;42.60;;;;;;1556889;75;1166;-66
2023/06/04 05:19:40;;;;;;;;;;;24.60;42.80;;;;;;1561008;75;1602;-66
2023/06/04 05:21:43;;;;;;;;;;;24.60;42.80;;;;;;1557036;75;801;-66
2023/06/04 05:23:48;;;;;;;;;;;24.70;42.70;;;;;;1554849;75;728;-66
2023/06/04 05:25:48;;;;;;;;;;;24.70;42.60;;;;;;1555193;75;1688;-67
2023/06/04 05:27:51;;;;;;;;;;;24.70;42.60;;;;;;1558744;75;1935;-65
2023/06/04 05:29:53;;;;;;;;;;;24.80;42.50;;;;;;1554037;75;749;-66
2023/06/04 05:31:55;;;;;;;;;;;24.80;42.40;;;;;;1558350;75;787;-67
2023/06/04 05:33:57;;;;;;;;;;;24.80;42.50;;;;;;1552285;75;741;-67
2023/06/04 05:35:59;;;;;;;;;;;24.80;42.30;;;;;;1565133;75;758;-67
2023/06/04 05:38:01;;;;;;;;;;;24.80;42.40;;;;;;1547631;75;1135;-69
2023/06/04 05:40:03;;;;;;;;;;;24.80;42.40;;;;;;1560219;75;751;-69
2023/06/04 05:42:06;;;;;;;;;;;24.80;42.50;;;;;;1560058;75;1561;-66
2023/06/04 05:44:07;;;;;;;;;;;24.80;42.60;;;;;;1552390;75;740;-67
2023/06/04 05:46:10;;;;;;;;;;;24.90;42.80;;;;;;1557602;74;755;-67
2023/06/04 05:48:12;;;;;;;;;;;24.80;42.70;;;;;;1559746;74;1934;-67
2023/06/04 05:50:14;;;;;;;;;;;24.90;42.70;;;;;;1552042;75;1348;-68
2023/06/04 05:52:16;;;;;;;;;;;24.80;42.60;;;;;;1553807;75;1495;-68
2023/06/04 05:54:18;;;;;;;;;;;24.80;42.60;;;;;;1549599;75;1492;-67
2023/06/04 05:56:20;;;;;;;;;;;24.80;42.50;;;;;;1555710;75;1224;-67
2023/06/04 05:58:22;;;;;;;;;;;24.80;42.50;;;;;;1552111;75;1168;-67
2023/06/04 06:00:24;;;;;;;;;;;24.80;42.60;;;;;;1552248;75;1199;-67
2023/06/04 06:02:26;;;;;;;;;;;24.80;42.50;;;;;;1558599;75;1512;-67
2023/06/04 06:04:28;;;;;;;;;;;24.80;42.50;;;;;;1558012;75;1520;-67
2023/06/04 06:06:30;;;;;;;;;;;24.80;42.50;;;;;;1560165;75;1504;-67
2023/06/04 06:08:32;;;;;;;;;;;24.70;42.50;;;;;;1552409;74;1950;-67
2023/06/04 06:10:34;;;;;;;;;;;24.70;42.60;;;;;;1546768;75;1569;-67
2023/06/04 06:12:36;;;;;;;;;;;24.70;42.60;;;;;;1553956;75;1171;-67
2023/06/04 06:14:38;;;;;;;;;;;24.70;42.60;;;;;;1549955;75;1474;-66
2023/06/04 06:16:40;;;;;;;;;;;24.70;42.60;;;;;;1554799;75;1302;-66
2023/06/04 06:18:42;;;;;;;;;;;24.70;42.50;;;;;;1558227;75;1129;-66
2023/06/04 06:20:44;;;;;;;;;;;24.70;42.50;;;;;;1563715;75;1007;-66
2023/06/04 06:22:45;;;;;;;;;;;24.60;42.40;;;;;;1558656;75;1591;-67
2023/06/04 06:24:50;;;;;;;;;;;24.60;42.50;;;;;;1554632;75;1527;-66
2023/06/04 06:26:52;;;;;;;;;;;24.60;42.50;;;;;;1558200;74;1306;-66
2023/06/04 06:28:54;;;;;;;;;;;24.60;42.40;;;;;;1556012;75;1954;-66
2023/06/04 06:30:56;;;;;;;;;;;24.60;42.40;;;;;;1552403;75;1044;-66
2023/06/04 06:32:58;;;;;;;;;;;24.70;42.60;;;;;;1555415;75;1740;-67
2023/06/04 06:35:00;;;;;;;;;;;24.60;42.40;;;;;;1555290;75;1515;-67
2023/06/04 06:37:02;;;;;;;;;;;24.60;42.30;;;;;;1555134;75;1475;-66
2023/06/04 06:39:04;;;;;;;;;;;24.70;42.50;;;;;;1559535;75;1109;-67
2023/06/04 06:41:06;;;;;;;;;;;24.70;42.50;;;;;;1560044;75;1485;-66
2023/06/04 06:43:08;;;;;;;;;;;24.60;42.30;;;;;;1553148;75;1327;-66
2023/06/04 06:45:10;;;;;;;;;;;24.70;42.40;;;;;;1547751;75;1312;-66
2023/06/04 06:47:16;;;;;;;;;;;24.70;42.40;;;;;;1559458;75;1325;-67
2023/06/04 06:49:16;;;;;;;;;;;24.60;42.20;;;;;;1560563;75;1915;-66
2023/06/04 06:51:18;;;;;;;;;;;24.60;42.20;;;;;;1559128;75;1473;-66
2023/06/04 06:53:20;;;;;;;;;;;24.50;42.10;;;;;;1556472;75;1333;-67
2023/06/04 06:55:22;;;;;;;;;;;24.60;42.20;;;;;;1552725;75;1298;-67
2023/06/04 06:57:24;;;;;;;;;;;24.60;42.20;;;;;;1554551;75;1187;-67
2023/06/04 06:59:25;;;;;;;;;;;24.50;42.10;;;;;;1550758;75;1492;-66
2023/06/04 07:01:27;;;;;;;;;;;24.60;42.10;;;;;;1556390;75;1293;-66
2023/06/04 07:03:30;;;;;;;;;;;24.60;42.10;;;;;;1553622;75;1230;-66
2023/06/04 07:05:31;;;;;;;;;;;24.60;42.10;;;;;;1549127;74;1471;-66
2023/06/04 07:07:33;;;;;;;;;;;24.50;42.10;;;;;;1549035;75;1434;-66
2023/06/04 07:09:35;;;;;;;;;;;24.60;42.00;;;;;;1544312;75;1935;-66
2023/06/04 07:11:37;;;;;;;;;;;24.60;42.00;;;;;;1552402;75;1502;-67
2023/06/04 07:13:39;;;;;;;;;;;24.60;42.00;;;;;;1556649;75;1531;-67
2023/06/04 07:15:41;;;;;;;;;;;24.60;42.10;;;;;;1552834;75;1494;-67
2023/06/04 07:17:43;;;;;;;;;;;24.60;42.00;;;;;;1546951;75;1225;-67
2023/06/04 07:19:45;;;;;;;;;;;24.60;41.90;;;;;;1549482;75;1492;-68
2023/06/04 07:21:47;;;;;;;;;;;24.60;42.00;;;;;;1551963;75;1344;-67
2023/06/04 07:23:49;;;;;;;;;;;24.60;41.90;;;;;;1550511;75;1168;-67
2023/06/04 07:25:51;;;;;;;;;;;24.60;41.90;;;;;;1548664;75;1369;-67
2023/06/04 07:27:53;;;;;;;;;;;24.70;42.00;;;;;;1551053;75;1936;-67
2023/06/04 07:29:55;;;;;;;;;;;24.60;41.80;;;;;;1547575;75;1106;-67
2023/06/04 07:31:57;;;;;;;;;;;24.60;41.70;;;;;;1557384;75;1467;-67
2023/06/04 07:33:58;;;;;;;;;;;24.60;41.60;;;;;;1545925;75;1514;-66
2023/06/04 07:36:00;;;;;;;;;;;24.70;41.70;;;;;;1550101;75;1080;-66
2023/06/04 07:38:02;;;;;;;;;;;24.60;41.50;;;;;;1543113;75;1353;-66
2023/06/04 07:40:04;;;;;;;;;;;24.60;41.50;;;;;;1546759;75;1379;-66
2023/06/04 07:42:10;;;;;;;;;;;24.60;41.60;;;;;;1552940;75;1397;-66
2023/06/04 07:44:10;;;;;;;;;;;24.70;41.80;;;;;;1546859;75;1645;-67
2023/06/04 07:46:12;;;;;;;;;;;24.70;42.00;;;;;;1548829;75;1336;-66
2023/06/04 07:48:14;;;;;;;;;;;24.80;41.90;;;;;;1554143;75;1922;-67
2023/06/04 07:50:16;;;;;;;;;;;24.80;41.90;;;;;;1547970;75;1469;-67
2023/06/04 07:52:18;;;;;;;;;;;24.70;42.00;;;;;;1545926;75;1532;-66
2023/06/04 07:54:20;;;;;;;;;;;24.70;41.90;;;;;;1552752;75;1319;-66
2023/06/04 07:56:22;;;;;;;;;;;24.80;41.90;;;;;;1548888;75;1488;-66
2023/06/04 07:58:25;;;;;;;;;;;24.80;41.90;;;;;;1552464;75;1407;-66
2023/06/04 08:00:27;;;;;;;;;;;24.80;41.80;;;;;;1544592;75;1376;-66
2023/06/04 08:02:28;;;;;;;;;;;24.80;41.80;;;;;;1544588;75;1516;-67
2023/06/04 08:04:31;;;;;;;;;;;24.80;41.80;;;;;;1548640;75;1563;-67
2023/06/04 08:06:33;;;;;;;;;;;24.70;41.80;;;;;;1552749;75;1478;-67
2023/06/04 08:08:35;;;;;;;;;;;24.70;41.80;;;;;;1552337;75;1927;-67
2023/06/04 08:10:37;;;;;;;;;;;24.80;41.80;;;;;;1548651;75;1484;-67
2023/06/04 08:12:39;;;;;;;;;;;24.80;41.80;;;;;;1552525;75;1109;-67
2023/06/04 08:14:40;;;;;;;;;;;24.80;41.80;;;;;;1553707;75;1455;-67
2023/06/04 08:16:42;;;;;;;;;;;24.80;41.80;;;;;;1553828;75;1604;-67
2023/06/04 08:18:44;;;;;;;;;;;24.80;41.70;;;;;;1553502;75;1477;-66
2023/06/04 08:20:46;;;;;;;;;;;24.80;41.80;;;;;;1559420;75;1394;-65
2023/06/04 08:22:48;;;;;;;;;;;24.80;41.80;;;;;;1554610;75;1277;-65
2023/06/04 08:24:50;;;;;;;;;;;24.80;41.80;;;;;;1550018;75;1236;-66
2023/06/04 08:26:52;;;;;;;;;;;24.80;41.70;;;;;;1561856;75;1410;-66
2023/06/04 08:28:54;;;;;;;;;;;24.80;41.60;;;;;;1556847;75;1927;-65
2023/06/04 08:30:56;;;;;;;;;;;24.80;40.20;;;;;;1552806;75;1596;-65
2023/06/04 08:32:58;;;;;;;;;;;24.70;40.90;;;;;;1555878;75;1307;-66
2023/06/04 08:35:00;;;;;;;;;;;24.70;41.50;;;;;;1549857;75;1492;-66
2023/06/04 08:37:02;;;;;;;;;;;24.70;41.30;;;;;;1553667;75;1469;-65
2023/06/04 08:39:04;;;;;;;;;;;24.60;40.40;;;;;;1549568;75;1488;-66
2023/06/04 08:41:07;;;;;;;;;;;24.70;40.80;;;;;;1554868;75;1267;-66
2023/06/04 08:43:09;;;;;;;;;;;24.70;39.90;;;;;;1545528;74;1872;-66
2023/06/04 08:45:12;;;;;;;;;;;24.70;40.40;;;;;;1557314;75;1107;-66
2023/06/04 08:47:14;;;;;;;;;;;24.70;40.40;;;;;;1554367;75;1429;-66
2023/06/04 08:49:16;;;;;;;;;;;24.80;39.20;;;;;;1558117;75;1930;-66
2023/06/04 08:51:18;;;;;;;;;;;24.80;38.70;;;;;;1555133;75;1553;-66
2023/06/04 08:53:20;;;;;;;;;;;24.80;37.80;;;;;;1557870;75;1492;-66
2023/06/04 08:55:22;;;;;;;;;;;24.70;37.90;;;;;;1552581;75;1035;-66
2023/06/04 08:57:24;;;;;;;;;;;24.60;37.20;;;;;;1553399;75;1528;-66
2023/06/04 08:59:26;;;;;;;;;;;24.40;36.00;;;;;;1550646;75;1329;-67
2023/06/04 09:01:28;;;;;;;;;;;24.40;38.90;;;;;;1546689;75;1477;-66
2023/06/04 09:03:33;;;;;;;;;;;24.50;36.40;;;;;;1559720;74;1506;-66
2023/06/04 09:05:34;;;;;;;;;;;24.30;36.90;;;;;;1554277;75;1371;-69
2023/06/04 09:07:37;;;;;;;;;;;24.40;37.50;;;;;;1550353;75;1251;-68
2023/06/04 09:09:39;;;;;;;;;;;24.30;37.10;;;;;;1555721;75;1951;-68
2023/06/04 09:11:52;;;;;;;;;;;24.40;37.40;;;;;;1552059;75;1532;-68
2023/06/04 09:13:54;;;;;;;;;;;24.40;37.80;;;;;;1552913;75;1369;-67
2023/06/04 09:16:09;;;;;;;;;;;24.60;38.60;;;;;;1557333;75;1540;-68
2023/06/04 09:18:08;;;;;;;;;;;24.60;37.90;;;;;;1536930;76;1459;-68
2023/06/04 09:20:21;;;;;;;;;;;24.50;37.90;;;;;;1522993;76;1240;-67
2023/06/04 09:22:25;;;;;;;;;;;24.50;38.40;;;;;;1528483;76;2386;-70
2023/06/04 09:24:28;;;;;;;;;;;24.60;39.20;;;;;;1531765;76;1517;-68
2023/06/04 09:26:30;;;;;;;;;;;24.70;39.50;;;;;;1532088;76;1967;-69
2023/06/04 09:28:32;;;;;;;;;;;24.80;39.50;;;;;;1526634;76;1941;-68
2023/06/04 09:30:35;;;;;;;;;;;24.80;39.70;;;;;;1531499;77;1521;-68
2023/06/04 09:32:37;;;;;;;;;;;24.80;40.00;;;;;;1528601;77;1502;-69
2023/06/04 09:34:44;;;;;;;;;;;24.80;40.50;;;;;;1521944;76;1424;-68
2023/06/04 09:36:42;;;;;;;;;;;24.80;41.20;;;;;;1521728;76;1656;-68
2023/06/04 09:38:44;;;;;;;;;;;24.90;40.80;;;;;;1530159;76;1271;-68
2023/06/04 09:40:46;;;;;;;;;;;25.00;41.10;;;;;;1532652;76;1365;-70
2023/06/04 09:42:54;;;;;;;;;;;25.00;41.00;;;;;;1525877;76;1092;-73
2023/06/04 09:44:58;;;;;;;;;;;24.90;40.40;;;;;;1527719;76;1099;-68
2023/06/04 09:47:00;;;;;;;;;;;24.90;38.70;;;;;;1540915;75;1372;-67
2023/06/04 09:49:03;;;;;;;;;;;24.80;39.50;;;;;;1552039;75;1921;-67
2023/06/04 09:51:19;;;;;;;;;;;24.90;39.50;;;;;;1553734;75;1485;-67
2023/06/04 09:53:28;;;;;;;;;;;24.90;36.20;;;;;;1552430;75;1863;-67
2023/06/04 09:55:25;;;;;;;;;;;24.80;37.40;;;;;;1549284;75;1616;-67
2023/06/04 09:57:26;;;;;;;;;;;24.80;35.90;;;;;;1555427;75;1463;-67
2023/06/04 09:59:28;;;;;;;;;;;24.80;37.70;;;;;;1551083;75;1269;-67
2023/06/04 10:01:30;;;;;;;;;;;24.80;35.20;;;;;;1554018;75;1054;-67
2023/06/04 10:03:34;;;;;;;;;;;24.80;35.20;;;;;;1561021;75;1515;-67
2023/06/04 10:05:36;;;;;;;;;;;24.70;33.40;;;;;;1551129;75;1502;-67
2023/06/04 10:07:38;;;;;;;;;;;24.70;36.80;;;;;;1554225;75;1553;-67
2023/06/04 10:09:45;;;;;;;;;;;24.70;36.00;;;;;;1556661;75;1941;-68
2023/06/04 10:11:45;;;;;;;;;;;24.60;34.90;;;;;;1543707;75;1490;-67
2023/06/04 10:13:51;;;;;;;;;;;24.50;33.70;;;;;;1551448;75;1961;-68
2023/06/04 10:15:53;;;;;;;;;;;24.50;36.10;;;;;;1548058;75;1816;-66
2023/06/04 10:17:55;;;;;;;;;;;24.50;36.20;;;;;;1554560;75;1306;-67
2023/06/04 10:19:57;;;;;;;;;;;24.60;35.50;;;;;;1552823;74;1326;-67
2023/06/04 10:21:59;;;;;;;;;;;24.50;35.80;;;;;;1554245;75;1325;-67
2023/06/04 10:24:01;;;;;;;;;;;24.60;36.60;;;;;;1554782;75;1211;-67
2023/06/04 10:26:03;;;;;;;;;;;24.70;36.10;;;;;;1556518;75;1329;-67
2023/06/04 10:28:05;;;;;;;;;;;24.60;35.50;;;;;;1554483;75;1360;-67
2023/06/04 10:30:07;;;;;;;;;;;24.70;36.30;;;;;;1551733;75;1939;-67
2023/06/04 10:32:09;;;;;;;;;;;24.70;36.50;;;;;;1556782;75;1248;-67
2023/06/04 10:34:12;;;;;;;;;;;24.60;35.10;;;;;;1555867;75;1053;-68
2023/06/04 10:36:18;;;;;;;;;;;24.50;34.40;;;;;;1559814;74;1367;-68
2023/06/04 10:38:22;;;;;;;;;;;24.50;33.80;;;;;;1556691;75;1176;-67
2023/06/04 10:40:25;;;;;;;;;;;24.50;34.20;;;;;;1553913;74;1309;-67
2023/06/04 10:42:27;;;;;;;;;;;24.50;36.20;;;;;;1553290;75;1940;-67
2023/06/04 10:44:31;;;;;;;;;;;24.60;35.70;;;;;;1518670;76;1437;-67
2023/06/04 10:46:42;;;;;;;;;;;24.50;34.50;;;;;;1556331;75;1662;-67
2023/06/04 10:48:51;;;;;;;;;;;24.40;33.60;;;;;;1550938;75;1312;-67
2023/06/04 10:50:53;;;;;;;;;;;24.40;35.70;;;;;;1553551;75;1940;-67
2023/06/04 10:52:57;;;;;;;;;;;24.50;35.10;;;;;;1554177;75;1302;-68
2023/06/04 10:55:00;;;;;;;;;;;24.50;34.90;;;;;;1554388;75;1336;-67
2023/06/04 10:57:04;;;;;;;;;;;24.40;34.00;;;;;;1545932;75;1748;-68
2023/06/04 10:59:15;;;;;;;;;;;24.40;35.50;;;;;;1554267;74;1908;-66
2023/06/04 11:01:18;;;;;;;;;;;24.50;35.60;;;;;;1560407;75;1307;-67
2023/06/04 11:03:20;;;;;;;;;;;24.40;34.40;;;;;;1558934;75;1841;-67
2023/06/04 11:05:22;;;;;;;;;;;24.40;35.70;;;;;;1553802;75;1592;-67
2023/06/04 11:07:24;;;;;;;;;;;24.30;34.30;;;;;;1556855;75;1302;-66
2023/06/04 11:09:26;;;;;;;;;;;24.30;32.60;;;;;;1561405;75;1922;-67
2023/06/04 11:11:28;;;;;;;;;;;24.30;31.80;;;;;;1547686;75;1483;-67
2023/06/04 11:13:30;;;;;;;;;;;24.20;34.50;;;;;;1561297;75;1253;-67
2023/06/04 11:15:43;;;;;;;;;;;24.30;34.80;;;;;;1557915;75;1064;-67
2023/06/04 11:17:51;;;;;;;;;;;24.30;34.90;;;;;;1552624;75;1813;-67
2023/06/04 11:19:55;;;;;;;;;;;24.30;35.30;;;;;;1553608;75;1278;-67
2023/06/04 11:21:57;;;;;;;;;;;24.20;35.10;;;;;;1556838;75;1283;-67
2023/06/04 11:23:59;;;;;;;;;;;24.20;35.30;;;;;;1555528;75;1219;-67
2023/06/04 11:26:01;;;;;;;;;;;24.20;35.40;;;;;;1555994;75;1032;-67
2023/06/04 11:28:03;;;;;;;;;;;24.30;35.80;;;;;;1558769;75;1212;-67
2023/06/04 11:30:06;;;;;;;;;;;24.30;35.70;;;;;;1548618;75;1930;-68
2023/06/04 11:32:08;;;;;;;;;;;24.30;33.40;;;;;;1551745;75;1463;-67
2023/06/04 11:34:13;;;;;;;;;;;24.30;35.70;;;;;;1549206;75;1329;-67
2023/06/04 11:36:27;;;;;;;;;;;24.30;33.40;;;;;;1548949;74;1670;-67
2023/06/04 11:38:29;;;;;;;;;;;24.20;34.10;;;;;;1553309;75;1571;-67
2023/06/04 11:40:31;;;;;;;;;;;24.20;33.30;;;;;;1556262;75;1459;-67
2023/06/04 11:42:36;;;;;;;;;;;24.20;32.80;;;;;;1556282;75;1283;-67
2023/06/04 11:44:37;;;;;;;;;;;24.10;34.30;;;;;;1552326;75;1432;-68
2023/06/04 11:46:48;;;;;;;;;;;24.10;33.90;;;;;;1546751;75;1510;-67
2023/06/04 11:48:45;;;;;;;;;;;24.10;34.20;;;;;;1557264;74;1617;-68
2023/06/04 11:50:47;;;;;;;;;;;24.10;33.40;;;;;;1560811;74;1950;-68
2023/06/04 11:52:49;;;;;;;;;;;24.10;34.70;;;;;;1560305;74;1256;-69
2023/06/04 11:54:51;;;;;;;;;;;24.20;34.40;;;;;;1563753;74;1325;-68
2023/06/04 11:56:53;;;;;;;;;;;24.10;32.70;;;;;;1557498;74;1180;-68
2023/06/04 11:58:55;;;;;;;;;;;24.20;34.90;;;;;;1559901;74;1267;-68
2023/06/04 12:00:57;;;;;;;;;;;24.20;35.50;;;;;;1554622;74;1526;-67
2023/06/04 12:02:59;;;;;;;;;;;24.30;35.20;;;;;;1561277;74;1251;-68
2023/06/04 12:05:03;;;;;;;;;;;24.20;33.90;;;;;;1559449;74;1061;-68
2023/06/04 12:07:08;;;;;;;;;;;24.20;34.00;;;;;;1559823;74;1919;-68